createdAt,value
2023-05-21T00:01:19.274Z,54.70
2023-05-21T00:03:47.783Z,54.70
2023-05-21T00:06:16.352Z,54.70
2023-05-21T00:08:44.891Z,54.80
2023-05-21T00:11:13.297Z,54.80
2023-05-21T00:13:41.614Z,54.70
2023-05-21T01:01:37.006Z,55.00
2023-05-21T01:04:06.075Z,55.00
2023-05-21T01:06:35.452Z,55.00
2023-05-21T01:09:06.807Z,55.00
2023-05-21T01:11:43.062Z,55.00
2023-05-21T01:14:13.405Z,55.00
2023-05-21T01:48:10.117Z,54.90
2023-05-21T01:50:39.846Z,54.80
2023-05-21T01:53:08.343Z,54.80
2023-05-21T01:55:39.548Z,54.80
2023-05-21T01:58:08.718Z,54.80
2023-05-21T02:48:00.880Z,54.50
2023-05-21T02:50:32.810Z,54.50
2023-05-21T02:53:01.431Z,54.50
2023-05-21T02:55:31.071Z,54.50
2023-05-21T02:57:59.395Z,54.50
2023-05-21T03:47:19.538Z,54.60
2023-05-21T03:49:49.034Z,54.50
2023-05-21T03:52:17.348Z,54.60
2023-05-21T03:54:45.813Z,54.50
2023-05-21T03:57:14.215Z,54.50
2023-05-21T03:59:42.620Z,54.60
2023-05-21T04:46:06.030Z,54.40
2023-05-21T04:48:35.853Z,54.40
2023-05-21T04:51:05.691Z,54.40
2023-05-21T04:53:35.772Z,54.50
2023-05-21T04:56:04.209Z,54.40
2023-05-21T04:58:34.276Z,54.50
2023-05-21T05:01:04.187Z,54.50
2023-05-21T05:03:32.696Z,54.40
2023-05-21T05:06:04.214Z,54.40
2023-05-21T05:08:32.602Z,54.40
2023-05-21T05:11:01.103Z,54.60
2023-05-21T05:13:29.448Z,54.60
2023-05-21T05:15:57.753Z,54.60
2023-05-21T05:18:27.847Z,54.50
2023-05-21T05:20:56.414Z,54.50
2023-05-21T05:23:24.710Z,54.50
2023-05-21T05:25:53.296Z,54.70
2023-05-21T05:28:21.778Z,54.60
2023-05-21T05:30:50.241Z,54.60
2023-05-21T05:33:24.160Z,54.60
2023-05-21T05:35:53.908Z,54.60
2023-05-21T05:38:22.939Z,54.60
2023-05-21T05:40:51.320Z,54.70
2023-05-21T05:43:19.595Z,54.60
2023-05-21T05:45:48.908Z,54.70
2023-05-21T05:48:17.818Z,54.70
2023-05-21T05:50:46.929Z,54.80
2023-05-21T05:53:17.642Z,54.70
2023-05-21T05:55:45.926Z,54.70
2023-05-21T05:58:14.709Z,54.80
2023-05-21T06:00:59.132Z,54.90
2023-05-21T06:03:29.791Z,55.00
2023-05-21T06:05:59.284Z,55.00
2023-05-21T06:08:31.042Z,55.00
2023-05-21T06:10:59.330Z,55.00
2023-05-21T06:13:28.194Z,54.90
2023-05-21T06:15:56.483Z,55.00
2023-05-21T06:18:24.824Z,54.90
2023-05-21T06:20:53.545Z,54.90
2023-05-21T06:23:23.573Z,54.90
2023-05-21T06:25:53.552Z,54.90
2023-05-21T06:28:22.082Z,54.90
2023-05-21T06:30:51.260Z,55.00
2023-05-21T06:33:19.824Z,55.00
2023-05-21T06:35:48.520Z,55.10
2023-05-21T06:38:16.985Z,55.10
2023-05-21T06:40:47.454Z,55.00
2023-05-21T06:43:25.394Z,55.10
2023-05-21T06:46:13.987Z,55.10
2023-05-21T06:48:42.559Z,55.00
2023-05-21T06:51:11.006Z,57.80
2023-05-21T06:53:39.463Z,58.00
2023-05-21T06:56:08.432Z,57.80
2023-05-21T06:58:40.844Z,58.10
2023-05-21T07:01:09.283Z,57.80
2023-05-21T07:03:38.104Z,56.90
2023-05-21T07:06:06.724Z,57.70
2023-05-21T07:08:35.252Z,57.50
2023-05-21T07:11:03.835Z,57.90
2023-05-21T07:13:32.404Z,57.80
2023-05-21T07:16:02.190Z,57.90
2023-05-21T07:18:31.152Z,57.80
2023-05-21T07:20:59.687Z,57.60
2023-05-21T07:23:28.600Z,57.30
2023-05-21T07:25:56.947Z,57.90
2023-05-21T07:28:25.407Z,57.70
2023-05-21T07:30:53.877Z,58.20
2023-05-21T07:33:30.924Z,57.80
2023-05-21T07:35:59.363Z,57.90
2023-05-21T07:38:27.847Z,58.00
2023-05-21T07:40:56.767Z,57.50
2023-05-21T07:43:25.372Z,57.50
2023-05-21T07:45:53.883Z,57.50
2023-05-21T07:48:22.272Z,57.40
2023-05-21T07:50:58.286Z,57.30
2023-05-21T07:53:28.768Z,57.40
2023-05-21T07:55:59.581Z,57.30
2023-05-21T07:58:31.048Z,57.30
2023-05-21T08:01:00.692Z,57.20
2023-05-21T08:03:31.302Z,57.50
2023-05-21T08:06:01.188Z,57.50
2023-05-21T08:08:32.665Z,57.80
2023-05-21T08:11:01.761Z,57.70
2023-05-21T08:13:30.834Z,58.60
2023-05-21T08:15:59.361Z,58.70
2023-05-21T08:18:28.692Z,58.40
2023-05-21T08:21:00.322Z,58.50
2023-05-21T08:23:29.800Z,58.30
2023-05-21T08:26:00.882Z,58.40
2023-05-21T08:28:29.332Z,58.30
2023-05-21T08:30:58.334Z,58.30
2023-05-21T08:33:27.213Z,58.10
2023-05-21T08:35:56.144Z,58.10
2023-05-21T08:38:31.239Z,58.10
2023-05-21T08:41:02.357Z,57.90
2023-05-21T08:43:31.668Z,57.90
2023-05-21T08:46:03.618Z,57.80
2023-05-21T08:48:37.691Z,57.70
2023-05-21T08:51:07.168Z,57.70
2023-05-21T08:53:42.311Z,57.80
2023-05-21T08:56:13.064Z,59.00
2023-05-21T08:58:48.053Z,58.70
2023-05-21T09:01:21.946Z,59.20
2023-05-21T09:04:08.307Z,59.20
2023-05-21T09:06:42.408Z,59.10
2023-05-21T09:09:23.020Z,58.80
2023-05-21T09:11:51.839Z,58.50
2023-05-21T09:14:22.107Z,58.70
2023-05-21T09:17:14.047Z,58.70
2023-05-21T09:20:12.286Z,58.90
2023-05-21T09:22:45.880Z,60.90
2023-05-21T09:25:18.418Z,60.20
2023-05-21T09:27:47.152Z,59.70
2023-05-21T09:30:17.907Z,59.40
2023-05-21T09:32:47.141Z,59.30
2023-05-21T09:35:17.099Z,59.20
2023-05-21T09:37:48.283Z,59.00
2023-05-21T09:40:20.526Z,59.10
2023-05-21T09:42:50.511Z,59.00
2023-05-21T09:45:20.920Z,59.00
2023-05-21T09:47:52.224Z,59.00
2023-05-21T09:50:22.479Z,58.90
2023-05-21T09:52:53.003Z,59.00
2023-05-21T09:55:24.735Z,58.90
2023-05-21T09:57:54.023Z,59.10
2023-05-21T10:00:23.673Z,59.00
2023-05-21T10:02:56.669Z,58.90
2023-05-21T10:05:29.110Z,58.90
2023-05-21T10:08:02.299Z,58.90
2023-05-21T10:10:33.667Z,58.80
2023-05-21T10:13:07.073Z,58.80
2023-05-21T10:15:39.927Z,58.70
2023-05-21T10:18:09.759Z,58.80
2023-05-21T10:20:38.896Z,58.60
2023-05-21T10:23:09.212Z,58.50
2023-05-21T10:25:39.371Z,58.70
2023-05-21T10:28:08.311Z,58.60
2023-05-21T10:30:38.211Z,58.30
2023-05-21T10:33:07.460Z,58.40
2023-05-21T10:35:35.995Z,58.30
2023-05-21T10:38:06.113Z,58.30
2023-05-21T10:40:36.138Z,58.20
2023-05-21T10:43:32.430Z,58.20
2023-05-21T10:46:41.228Z,58.10
2023-05-21T10:49:28.138Z,58.40
2023-05-21T10:52:08.592Z,58.00
2023-05-21T10:55:18.818Z,58.00
2023-05-21T10:58:38.726Z,58.00
2023-05-21T11:01:09.127Z,58.00
2023-05-21T11:03:38.746Z,58.00
2023-05-21T11:06:08.489Z,58.10
2023-05-21T11:08:38.853Z,58.00
2023-05-21T11:11:07.521Z,58.00
2023-05-21T11:13:49.244Z,57.90
2023-05-21T11:16:22.414Z,57.80
2023-05-21T11:19:01.725Z,58.50
2023-05-21T11:21:36.122Z,58.40
2023-05-21T11:24:10.712Z,58.30
2023-05-21T11:27:04.410Z,58.30
2023-05-21T11:29:47.161Z,58.20
2023-05-21T11:32:20.644Z,58.30
2023-05-21T11:34:49.636Z,58.20
2023-05-21T11:37:27.723Z,58.20
2023-05-21T11:39:57.635Z,58.20
2023-05-21T11:42:34.207Z,58.40
2023-05-21T11:45:04.317Z,58.30
2023-05-21T11:47:34.265Z,58.50
2023-05-21T11:50:04.890Z,58.40
2023-05-21T11:52:33.773Z,58.40
2023-05-21T11:55:02.337Z,58.30
2023-05-21T11:57:31.872Z,58.30
2023-05-21T12:00:02.412Z,58.30
2023-05-21T12:02:47.735Z,58.20
2023-05-21T12:05:16.368Z,58.30
2023-05-21T12:07:50.120Z,58.30
2023-05-21T12:10:22.062Z,58.30
2023-05-21T12:12:54.853Z,58.40
2023-05-21T12:15:26.195Z,58.40
2023-05-21T12:17:57.062Z,58.40
2023-05-21T12:20:29.045Z,58.40
2023-05-21T12:22:59.910Z,58.40
2023-05-21T12:25:29.788Z,58.30
2023-05-21T12:27:58.963Z,58.40
2023-05-21T12:30:27.934Z,58.50
2023-05-21T12:33:01.918Z,58.60
2023-05-21T12:35:32.414Z,58.70
2023-05-21T12:38:03.892Z,58.50
2023-05-21T12:40:40.113Z,58.50
2023-05-21T12:43:08.856Z,58.50
2023-05-21T12:45:39.300Z,58.40
2023-05-21T12:48:09.597Z,58.40
2023-05-21T12:50:41.751Z,58.30
2023-05-21T12:53:12.014Z,58.50
2023-05-21T12:55:41.114Z,58.30
2023-05-21T12:58:09.637Z,58.20
2023-05-21T13:00:38.356Z,58.00
2023-05-21T13:03:08.477Z,57.90
2023-05-21T13:05:36.921Z,57.90
2023-05-21T13:08:05.712Z,57.80
2023-05-21T13:10:34.008Z,57.80
2023-05-21T13:13:02.674Z,57.80
2023-05-21T13:15:31.067Z,57.80
2023-05-21T13:18:01.268Z,57.80
2023-05-21T13:20:31.527Z,57.80
2023-05-21T13:22:59.911Z,57.70
2023-05-21T13:25:29.590Z,57.80
2023-05-21T13:27:58.709Z,57.80
2023-05-21T13:30:27.189Z,57.70
2023-05-21T13:32:56.004Z,57.40
2023-05-21T13:35:24.479Z,57.40
2023-05-21T13:37:54.122Z,57.30
2023-05-21T13:40:23.206Z,57.40
2023-05-21T13:42:51.819Z,57.50
2023-05-21T13:45:21.920Z,58.50
2023-05-21T13:47:50.409Z,57.20
2023-05-21T13:50:18.988Z,57.90
2023-05-21T13:52:47.575Z,57.60
2023-05-21T13:55:17.308Z,56.70
2023-05-21T13:57:45.916Z,55.40
2023-05-21T14:00:16.281Z,54.60
2023-05-21T14:02:45.784Z,53.30
2023-05-21T14:05:14.388Z,53.00
2023-05-21T14:07:43.057Z,52.60
2023-05-21T14:10:12.331Z,51.00
2023-05-21T14:12:42.414Z,50.10
2023-05-21T14:15:11.981Z,50.90
2023-05-21T14:17:42.344Z,51.50
2023-05-21T14:20:12.268Z,51.10
2023-05-21T14:22:40.774Z,55.50
2023-05-21T14:25:09.968Z,55.70
2023-05-21T14:27:38.860Z,55.70
2023-05-21T14:30:10.424Z,57.20
2023-05-21T14:32:38.780Z,59.40
2023-05-21T14:35:07.898Z,62.30
2023-05-21T14:37:36.222Z,66.20
2023-05-21T14:40:07.735Z,68.40
2023-05-21T14:42:36.733Z,70.10
2023-05-21T14:45:17.970Z,73.70
2023-05-21T14:47:50.925Z,64.30
2023-05-21T14:50:19.754Z,60.00
2023-05-21T14:52:48.206Z,57.50
2023-05-21T14:55:18.388Z,55.60
2023-05-21T14:57:46.737Z,55.30
2023-05-21T15:00:16.025Z,54.30
2023-05-21T15:02:44.731Z,53.30
2023-05-21T15:05:14.633Z,53.30
2023-05-21T15:07:42.978Z,53.30
2023-05-21T15:10:11.884Z,53.40
2023-05-21T15:12:41.033Z,53.00
2023-05-21T15:15:10.508Z,53.90
2023-05-21T15:17:38.917Z,53.80
2023-05-21T15:20:09.400Z,54.00
2023-05-21T15:22:39.538Z,54.80
2023-05-21T15:25:09.627Z,54.00
2023-05-21T15:27:38.935Z,54.60
2023-05-21T15:30:09.305Z,55.20
2023-05-21T15:32:37.874Z,55.60
2023-05-21T15:35:07.458Z,57.20
2023-05-21T15:37:35.883Z,56.90
2023-05-21T15:40:08.741Z,56.50
2023-05-21T15:42:37.069Z,56.30
2023-05-21T15:45:06.369Z,56.30
2023-05-21T15:47:34.750Z,56.40
2023-05-21T15:50:03.500Z,56.40
2023-05-21T15:52:31.921Z,56.40
2023-05-21T15:55:00.398Z,56.50
2023-05-21T15:57:30.544Z,56.50
2023-05-21T15:59:59.034Z,56.60
2023-05-21T16:02:27.541Z,56.60
2023-05-21T16:04:55.975Z,56.60
2023-05-21T16:07:25.179Z,56.70
2023-05-21T16:09:53.478Z,56.70
2023-05-21T16:12:21.872Z,57.20
2023-05-21T16:14:51.596Z,56.70
2023-05-21T16:17:20.148Z,56.70
2023-05-21T16:19:48.512Z,56.60
2023-05-21T16:22:17.137Z,56.70
2023-05-21T16:24:45.534Z,56.70
2023-05-21T16:27:13.858Z,56.80
2023-05-21T16:29:42.386Z,56.80
2023-05-21T16:32:14.010Z,56.80
2023-05-21T16:34:42.714Z,56.80
2023-05-21T16:37:11.150Z,56.90
2023-05-21T16:39:39.698Z,56.80
2023-05-21T16:42:08.073Z,56.90
2023-05-21T16:44:37.799Z,56.90
2023-05-21T16:47:06.483Z,57.10
2023-05-21T16:49:36.187Z,57.10
2023-05-21T16:52:04.709Z,57.10
2023-05-21T16:54:33.148Z,57.10
2023-05-21T16:57:01.542Z,57.20
2023-05-21T16:59:30.196Z,57.70
2023-05-21T17:01:58.763Z,57.30
2023-05-21T17:04:27.217Z,57.50
2023-05-21T17:06:56.889Z,57.50
2023-05-21T17:09:25.367Z,57.50
2023-05-21T17:11:53.858Z,57.50
2023-05-21T17:14:33.129Z,57.70
2023-05-21T17:17:03.182Z,57.60
2023-05-21T17:19:31.906Z,57.60
2023-05-21T17:22:01.691Z,57.70
2023-05-21T17:24:30.078Z,57.80
2023-05-21T17:26:58.463Z,57.80
2023-05-21T17:29:27.065Z,57.80
2023-05-21T17:31:55.508Z,58.00
2023-05-21T17:34:26.212Z,57.90
2023-05-21T17:36:55.503Z,58.20
2023-05-21T17:39:25.230Z,58.20
2023-05-21T17:41:54.064Z,57.90
2023-05-21T17:44:22.655Z,58.30
2023-05-21T17:46:52.017Z,58.70
2023-05-21T17:49:20.791Z,58.80
2023-05-21T17:51:49.468Z,59.60
2023-05-21T17:54:17.925Z,60.60
2023-05-21T17:56:47.668Z,61.00
2023-05-21T17:59:16.570Z,60.40
2023-05-21T18:01:45.454Z,64.10
2023-05-21T18:04:13.879Z,67.50
2023-05-21T18:06:42.161Z,68.20
2023-05-21T18:09:14.114Z,66.80
2023-05-21T18:11:44.754Z,70.20
2023-05-21T18:14:14.785Z,73.80
2023-05-21T18:16:43.249Z,77.10
2023-05-21T18:19:11.913Z,74.70
2023-05-21T18:21:40.346Z,79.40
2023-05-21T18:24:09.448Z,84.80
2023-05-21T18:26:37.844Z,83.60
2023-05-21T18:29:06.220Z,81.60
2023-05-21T18:31:36.050Z,79.70
2023-05-21T18:34:04.426Z,79.10
2023-05-21T18:36:38.623Z,77.00
2023-05-21T18:39:08.098Z,78.70
2023-05-21T18:41:37.197Z,78.30
2023-05-21T18:44:06.322Z,67.60
2023-05-21T18:46:36.259Z,68.90
2023-05-21T18:49:04.683Z,67.40
2023-05-21T18:51:33.131Z,66.10
2023-05-21T18:54:01.448Z,63.30
2023-05-21T18:56:29.828Z,62.60
2023-05-21T18:58:58.499Z,61.30
2023-05-21T19:01:27.520Z,61.70
2023-05-21T19:03:57.355Z,61.10
2023-05-21T19:06:27.662Z,62.00
2023-05-21T19:08:56.213Z,61.00
2023-05-21T19:11:27.482Z,60.60
2023-05-21T19:13:55.818Z,64.80
2023-05-21T19:16:24.233Z,64.60
2023-05-21T19:18:52.697Z,63.90
2023-05-21T19:21:22.798Z,63.90
2023-05-21T19:23:53.712Z,63.60
2023-05-21T19:26:23.325Z,63.90
2023-05-21T19:28:53.627Z,66.10
2023-05-21T19:31:23.474Z,69.00
2023-05-21T19:33:52.170Z,67.20
2023-05-21T19:36:22.473Z,66.10
2023-05-21T19:38:51.694Z,74.70
2023-05-21T19:41:21.552Z,68.80
2023-05-21T19:43:49.950Z,66.90
2023-05-21T19:46:20.029Z,68.00
2023-05-21T19:48:49.263Z,68.20
2023-05-21T19:51:18.050Z,71.10
2023-05-21T19:53:48.277Z,70.30
2023-05-21T19:56:16.997Z,67.80
2023-05-21T19:58:47.705Z,66.60
2023-05-21T20:01:17.451Z,65.60
2023-05-21T20:03:46.176Z,64.50
2023-05-21T20:06:16.845Z,64.00
2023-05-21T20:08:45.214Z,63.80
2023-05-21T20:11:14.988Z,63.70
2023-05-21T20:13:48.354Z,63.50
2023-05-21T20:16:18.342Z,63.20
2023-05-21T20:18:47.248Z,63.00
2023-05-21T20:21:17.479Z,62.80
2023-05-21T20:23:46.090Z,62.60
2023-05-21T20:26:16.610Z,62.40
2023-05-21T20:28:45.621Z,62.20
2023-05-21T20:31:14.160Z,62.00
2023-05-21T20:33:42.572Z,61.70
2023-05-21T20:36:11.086Z,61.50
2023-05-21T20:38:41.989Z,61.30
2023-05-21T20:41:10.529Z,60.90
2023-05-21T20:43:40.236Z,60.80
2023-05-21T20:46:08.609Z,60.80
2023-05-21T20:48:37.690Z,60.80
2023-05-21T20:51:06.869Z,61.10
2023-05-21T20:53:35.144Z,61.50
2023-05-21T20:56:07.040Z,61.20
2023-05-21T20:58:35.366Z,60.50
2023-05-21T21:01:05.113Z,59.90
2023-05-21T21:03:34.915Z,61.10
2023-05-21T21:06:04.299Z,60.10
2023-05-21T21:08:34.616Z,59.50
2023-05-21T21:11:02.934Z,59.40
2023-05-21T21:13:31.285Z,59.10
2023-05-21T21:15:59.613Z,58.80
2023-05-21T21:18:29.383Z,58.80
2023-05-21T21:20:57.863Z,58.50
2023-05-21T21:23:28.693Z,58.40
2023-05-21T21:25:58.416Z,58.30
2023-05-21T21:28:26.790Z,58.40
2023-05-21T21:30:55.181Z,58.30
2023-05-21T21:33:24.351Z,58.30
2023-05-21T21:35:54.164Z,58.30
2023-05-21T21:38:22.776Z,58.60
2023-05-21T21:40:51.347Z,59.00
2023-05-21T21:43:19.669Z,58.50
2023-05-21T21:45:47.969Z,58.60
2023-05-21T21:48:16.814Z,58.60
2023-05-21T21:50:45.346Z,58.60
2023-05-21T21:53:15.124Z,58.30
2023-05-21T21:55:43.428Z,58.10
2023-05-21T21:58:11.886Z,58.10
2023-05-21T22:00:40.460Z,58.10
2023-05-21T22:03:09.198Z,57.90
2023-05-21T22:05:38.157Z,57.10
2023-05-21T22:08:06.964Z,56.90
2023-05-21T22:10:38.240Z,56.80
2023-05-21T22:13:06.996Z,57.00
2023-05-21T22:15:35.617Z,56.80
2023-05-21T22:18:04.039Z,56.80
2023-05-21T22:20:33.082Z,57.00
2023-05-21T22:23:01.578Z,56.80
2023-05-21T22:25:29.905Z,56.80
2023-05-21T22:27:59.634Z,57.00
2023-05-21T22:30:28.010Z,57.10
2023-05-21T22:32:57.284Z,57.10
2023-05-21T22:35:26.002Z,57.10
2023-05-21T22:37:54.409Z,57.10
2023-05-21T22:40:22.814Z,57.10
2023-05-21T22:42:51.455Z,57.10
2023-05-21T22:45:21.855Z,57.10
2023-05-21T22:47:51.832Z,57.20
2023-05-21T22:50:20.173Z,57.10
2023-05-21T22:52:48.672Z,57.10
2023-05-21T22:55:17.260Z,57.10
2023-05-21T22:57:46.072Z,57.10
2023-05-21T23:00:14.913Z,57.00
2023-05-21T23:02:44.665Z,57.10
2023-05-21T23:05:13.133Z,57.00
2023-05-21T23:07:42.003Z,56.90
2023-05-21T23:10:11.700Z,56.30
2023-05-21T23:12:40.820Z,56.40
2023-05-21T23:15:10.761Z,56.40
2023-05-21T23:17:39.797Z,56.30
2023-05-21T23:20:11.049Z,56.30
2023-05-21T23:22:39.414Z,56.30
2023-05-21T23:25:09.614Z,56.20
2023-05-21T23:27:37.984Z,56.10
2023-05-21T23:30:08.893Z,56.00
2023-05-21T23:32:37.368Z,56.00
2023-05-21T23:35:07.507Z,56.00
2023-05-21T23:37:37.205Z,55.90
2023-05-21T23:40:06.922Z,55.90
2023-05-21T23:42:35.825Z,55.70
2023-05-21T23:45:04.400Z,55.80
